sensor_id;sensor_type;location;lat;lon;timestamp;pressure;altitude;pressure_sealevel;temperature;humidity
48644;BME280;34928;37.302;-121.984;2023-11-19T00:04:43;100873.0;;;25.65;37.99
48644;BME280;34928;37.302;-121.984;2023-11-19T00:14:48;100898.0;;;25.44;38.63
48644;BME280;34928;37.302;-121.984;2023-11-19T00:24:53;100911.0;;;25.46;39.73
48644;BME280;34928;37.302;-121.984;2023-11-19T00:34:58;100927.0;;;25.70;39.57
48644;BME280;34928;37.302;-121.984;2023-11-19T00:45:03;100935.0;;;25.49;39.75
48644;BME280;34928;37.302;-121.984;2023-11-19T00:55:08;100937.0;;;25.50;39.77
48644;BME280;34928;37.302;-121.984;2023-11-19T01:05:13;100943.0;;;25.52;39.74
48644;BME280;34928;37.302;-121.984;2023-11-19T01:15:18;100952.0;;;25.51;39.70
48644;BME280;34928;37.302;-121.984;2023-11-19T01:25:24;100960.0;;;25.28;39.70
48644;BME280;34928;37.302;-121.984;2023-11-19T01:35:29;100977.0;;;25.51;39.69
48644;BME280;34928;37.302;-121.984;2023-11-19T01:45:39;100987.0;;;25.53;39.59
48644;BME280;34928;37.302;-121.984;2023-11-19T01:55:43;101017.0;;;25.55;39.50
48644;BME280;34928;37.302;-121.984;2023-11-19T02:05:50;101029.0;;;25.28;38.77
48644;BME280;34928;37.302;-121.984;2023-11-19T02:15:58;101039.0;;;25.53;40.88
48644;BME280;34928;37.302;-121.984;2023-11-19T02:26:12;101052.0;;;25.52;41.22
48644;BME280;34928;37.302;-121.984;2023-11-19T02:36:20;101076.0;;;25.52;41.27
48644;BME280;34928;37.302;-121.984;2023-11-19T02:46:24;101090.0;;;25.73;41.18
48644;BME280;34928;37.302;-121.984;2023-11-19T02:56:28;101105.0;;;25.49;40.98
48644;BME280;34928;37.302;-121.984;2023-11-19T03:06:33;101105.0;;;25.47;40.81
48644;BME280;34928;37.302;-121.984;2023-11-19T03:16:38;101113.0;;;25.43;40.76
48644;BME280;34928;37.302;-121.984;2023-11-19T03:26:43;101129.0;;;25.45;40.62
48644;BME280;34928;37.302;-121.984;2023-11-19T03:36:54;101152.0;;;25.42;40.61
48644;BME280;34928;37.302;-121.984;2023-11-19T03:46:58;101171.0;;;25.63;40.45
48644;BME280;34928;37.302;-121.984;2023-11-19T03:57:03;101198.0;;;25.61;40.44
48644;BME280;34928;37.302;-121.984;2023-11-19T04:07:08;101210.0;;;25.38;40.37
48644;BME280;34928;37.302;-121.984;2023-11-19T04:17:12;101222.0;;;25.64;40.34
48644;BME280;34928;37.302;-121.984;2023-11-19T04:27:17;101258.0;;;25.23;40.27
48644;BME280;34928;37.302;-121.984;2023-11-19T04:37:23;101282.0;;;25.44;39.84
48644;BME280;34928;37.302;-121.984;2023-11-19T04:47:30;101287.0;;;25.71;39.95
48644;BME280;34928;37.302;-121.984;2023-11-19T04:57:34;101308.0;;;25.47;39.83
48644;BME280;34928;37.302;-121.984;2023-11-19T05:07:38;101327.0;;;25.47;39.93
48644;BME280;34928;37.302;-121.984;2023-11-19T05:17:43;101344.0;;;25.46;39.65
48644;BME280;34928;37.302;-121.984;2023-11-19T05:27:48;101363.0;;;25.44;39.92
48644;BME280;34928;37.302;-121.984;2023-11-19T05:37:53;101375.0;;;25.45;39.22
48644;BME280;34928;37.302;-121.984;2023-11-19T05:47:58;101415.0;;;25.45;39.00
48644;BME280;34928;37.302;-121.984;2023-11-19T05:58:03;101476.0;;;25.43;38.24
48644;BME280;34928;37.302;-121.984;2023-11-19T06:08:08;101497.0;;;25.45;38.34
48644;BME280;34928;37.302;-121.984;2023-11-19T06:18:13;101535.0;;;25.43;37.68
48644;BME280;34928;37.302;-121.984;2023-11-19T06:28:18;101562.0;;;25.40;38.39
48644;BME280;34928;37.302;-121.984;2023-11-19T06:38:23;101585.0;;;25.58;38.11
48644;BME280;34928;37.302;-121.984;2023-11-19T06:48:28;101602.0;;;25.31;38.08
48644;BME280;34928;37.302;-121.984;2023-11-19T06:58:36;101616.0;;;25.24;38.38
48644;BME280;34928;37.302;-121.984;2023-11-19T07:08:43;101637.0;;;25.65;38.54
48644;BME280;34928;37.302;-121.984;2023-11-19T07:18:48;101640.0;;;25.55;38.62
48644;BME280;34928;37.302;-121.984;2023-11-19T07:28:53;101668.0;;;25.22;38.51
48644;BME280;34928;37.302;-121.984;2023-11-19T07:38:58;101688.0;;;24.93;38.49
48644;BME280;34928;37.302;-121.984;2023-11-19T07:49:03;101711.0;;;25.11;38.18
48644;BME280;34928;37.302;-121.984;2023-11-19T07:59:08;101723.0;;;25.05;38.28
48644;BME280;34928;37.302;-121.984;2023-11-19T08:09:12;101738.0;;;25.24;38.24
48644;BME280;34928;37.302;-121.984;2023-11-19T08:19:18;101736.0;;;25.19;38.08
48644;BME280;34928;37.302;-121.984;2023-11-19T08:29:22;101725.0;;;25.13;37.71
48644;BME280;34928;37.302;-121.984;2023-11-19T08:39:27;101722.0;;;25.08;37.60
48644;BME280;34928;37.302;-121.984;2023-11-19T08:49:33;101733.0;;;24.54;37.37
48644;BME280;34928;37.302;-121.984;2023-11-19T08:59:37;101718.0;;;24.71;36.87
48644;BME280;34928;37.302;-121.984;2023-11-19T09:09:42;101718.0;;;24.91;36.92
48644;BME280;34928;37.302;-121.984;2023-11-19T09:19:48;101733.0;;;24.57;36.75
48644;BME280;34928;37.302;-121.984;2023-11-19T09:29:53;101747.0;;;24.53;36.57
48644;BME280;34928;37.302;-121.984;2023-11-19T09:39:58;101762.0;;;24.45;36.42
48644;BME280;34928;37.302;-121.984;2023-11-19T09:50:04;101770.0;;;24.65;36.35
48644;BME280;34928;37.302;-121.984;2023-11-19T10:00:09;101780.0;;;24.58;36.39
48644;BME280;34928;37.302;-121.984;2023-11-19T10:10:13;101785.0;;;24.50;36.41
48644;BME280;34928;37.302;-121.984;2023-11-19T10:20:18;101779.0;;;24.42;36.31
48644;BME280;34928;37.302;-121.984;2023-11-19T10:30:24;101792.0;;;24.06;36.37
48644;BME280;34928;37.302;-121.984;2023-11-19T10:40:39;101791.0;;;24.25;36.19
48644;BME280;34928;37.302;-121.984;2023-11-19T10:50:44;101824.0;;;24.21;36.13
48644;BME280;34928;37.302;-121.984;2023-11-19T11:00:50;101836.0;;;24.11;36.05
48644;BME280;34928;37.302;-121.984;2023-11-19T11:10:58;101836.0;;;24.22;36.00
48644;BME280;34928;37.302;-121.984;2023-11-19T11:21:07;101833.0;;;23.92;36.03
48644;BME280;34928;37.302;-121.984;2023-11-19T11:31:31;101817.0;;;23.87;35.82
48644;BME280;34928;37.302;-121.984;2023-11-19T11:41:38;101827.0;;;24.29;35.85
48644;BME280;34928;37.302;-121.984;2023-11-19T12:02:04;101843.0;;;23.89;35.61
48644;BME280;34928;37.302;-121.984;2023-11-19T12:12:20;101854.0;;;24.09;35.49
48644;BME280;34928;37.302;-121.984;2023-11-19T12:22:28;101865.0;;;24.06;35.48
48644;BME280;34928;37.302;-121.984;2023-11-19T12:32:42;101883.0;;;23.78;35.19
48644;BME280;34928;37.302;-121.984;2023-11-19T12:42:48;101867.0;;;23.73;35.13
48644;BME280;34928;37.302;-121.984;2023-11-19T12:52:57;101881.0;;;23.69;34.86
48644;BME280;34928;37.302;-121.984;2023-11-19T13:03:03;101887.0;;;23.45;34.78
48644;BME280;34928;37.302;-121.984;2023-11-19T13:13:09;101880.0;;;23.92;34.27
48644;BME280;34928;37.302;-121.984;2023-11-19T13:23:12;101882.0;;;23.61;34.02
48644;BME280;34928;37.302;-121.984;2023-11-19T13:33:18;101901.0;;;23.53;33.91
48644;BME280;34928;37.302;-121.984;2023-11-19T13:43:23;101923.0;;;23.46;34.04
48644;BME280;34928;37.302;-121.984;2023-11-19T13:53:27;101930.0;;;23.67;33.89
48644;BME280;34928;37.302;-121.984;2023-11-19T14:03:33;101954.0;;;23.63;33.22
48644;BME280;34928;37.302;-121.984;2023-11-19T14:13:38;101955.0;;;23.29;33.18
48644;BME280;34928;37.302;-121.984;2023-11-19T14:23:42;101971.0;;;23.21;33.08
48644;BME280;34928;37.302;-121.984;2023-11-19T14:33:48;101987.0;;;23.41;32.97
48644;BME280;34928;37.302;-121.984;2023-11-19T14:43:53;101998.0;;;23.57;32.99
48644;BME280;34928;37.302;-121.984;2023-11-19T14:53:58;102002.0;;;23.27;32.90
48644;BME280;34928;37.302;-121.984;2023-11-19T15:04:03;102010.0;;;23.18;32.93
48644;BME280;34928;37.302;-121.984;2023-11-19T15:14:07;102046.0;;;23.08;32.99
48644;BME280;34928;37.302;-121.984;2023-11-19T15:24:13;102062.0;;;23.47;32.79
48644;BME280;34928;37.302;-121.984;2023-11-19T15:34:18;102072.0;;;23.16;32.81
48644;BME280;34928;37.302;-121.984;2023-11-19T15:44:23;102081.0;;;22.86;32.76
48644;BME280;34928;37.302;-121.984;2023-11-19T15:54:28;102088.0;;;22.79;32.78
48644;BME280;34928;37.302;-121.984;2023-11-19T16:04:32;102110.0;;;22.93;32.88
48644;BME280;34928;37.302;-121.984;2023-11-19T16:14:38;102114.0;;;22.87;32.97
48644;BME280;34928;37.302;-121.984;2023-11-19T16:24:44;102127.0;;;22.77;33.35
48644;BME280;34928;37.302;-121.984;2023-11-19T16:34:48;102140.0;;;22.72;33.86
48644;BME280;34928;37.302;-121.984;2023-11-19T16:44:53;102159.0;;;22.72;35.50
48644;BME280;34928;37.302;-121.984;2023-11-19T16:54:59;102168.0;;;22.90;35.61
48644;BME280;34928;37.302;-121.984;2023-11-19T17:05:03;102173.0;;;22.88;35.20
48644;BME280;34928;37.302;-121.984;2023-11-19T17:15:09;102172.0;;;22.84;34.97
48644;BME280;34928;37.302;-121.984;2023-11-19T17:25:13;102178.0;;;22.58;34.86
48644;BME280;34928;37.302;-121.984;2023-11-19T17:35:18;102180.0;;;22.79;34.72
48644;BME280;34928;37.302;-121.984;2023-11-19T17:45:23;102182.0;;;22.53;34.70
48644;BME280;34928;37.302;-121.984;2023-11-19T17:55:27;102187.0;;;22.75;34.61
48644;BME280;34928;37.302;-121.984;2023-11-19T18:05:33;102204.0;;;22.75;34.53
48644;BME280;34928;37.302;-121.984;2023-11-19T18:15:38;102214.0;;;22.75;34.52
48644;BME280;34928;37.302;-121.984;2023-11-19T18:25:43;102217.0;;;22.75;34.57
48644;BME280;34928;37.302;-121.984;2023-11-19T18:35:47;102221.0;;;22.75;34.11
48644;BME280;34928;37.302;-121.984;2023-11-19T18:45:52;102206.0;;;22.74;33.90
48644;BME280;34928;37.302;-121.984;2023-11-19T18:55:58;102203.0;;;22.55;33.86
48644;BME280;34928;37.302;-121.984;2023-11-19T19:06:03;102178.0;;;22.77;33.81
48644;BME280;34928;37.302;-121.984;2023-11-19T19:16:09;102165.0;;;22.57;33.91
48644;BME280;34928;37.302;-121.984;2023-11-19T19:26:12;102147.0;;;22.59;33.96
48644;BME280;34928;37.302;-121.984;2023-11-19T19:36:18;102134.0;;;22.86;33.39
48644;BME280;34928;37.302;-121.984;2023-11-19T19:46:23;102129.0;;;22.65;33.23
48644;BME280;34928;37.302;-121.984;2023-11-19T19:56:28;102110.0;;;22.67;33.20
48644;BME280;34928;37.302;-121.984;2023-11-19T20:06:37;102085.0;;;22.46;32.75
48644;BME280;34928;37.302;-121.984;2023-11-19T20:16:43;102068.0;;;22.70;32.40
48644;BME280;34928;37.302;-121.984;2023-11-19T20:26:48;102061.0;;;22.52;32.32
48644;BME280;34928;37.302;-121.984;2023-11-19T20:36:53;102027.0;;;22.98;32.30
48644;BME280;34928;37.302;-121.984;2023-11-19T20:46:58;102005.0;;;22.80;32.33
48644;BME280;34928;37.302;-121.984;2023-11-19T20:57:03;101985.0;;;22.81;31.86
48644;BME280;34928;37.302;-121.984;2023-11-19T21:07:08;101976.0;;;23.09;32.03
48644;BME280;34928;37.302;-121.984;2023-11-19T21:17:13;101972.0;;;22.69;31.84
48644;BME280;34928;37.302;-121.984;2023-11-19T21:27:18;101975.0;;;22.71;31.66
48644;BME280;34928;37.302;-121.984;2023-11-19T21:37:23;101972.0;;;22.75;31.67
48644;BME280;34928;37.302;-121.984;2023-11-19T21:47:28;101948.0;;;23.01;31.33
48644;BME280;34928;37.302;-121.984;2023-11-19T21:57:33;101931.0;;;23.04;31.42
48644;BME280;34928;37.302;-121.984;2023-11-19T22:07:38;101921.0;;;22.87;31.53
48644;BME280;34928;37.302;-121.984;2023-11-19T22:17:42;101932.0;;;22.91;31.71
48644;BME280;34928;37.302;-121.984;2023-11-19T22:27:49;101912.0;;;22.95;31.82
48644;BME280;34928;37.302;-121.984;2023-11-19T22:37:52;101914.0;;;22.98;31.94
48644;BME280;34928;37.302;-121.984;2023-11-19T22:47:57;101901.0;;;23.26;31.99
48644;BME280;34928;37.302;-121.984;2023-11-19T22:58:05;101907.0;;;23.07;32.03
48644;BME280;34928;37.302;-121.984;2023-11-19T23:08:09;101906.0;;;23.12;32.03
48644;BME280;34928;37.302;-121.984;2023-11-19T23:18:14;101896.0;;;23.16;32.04
48644;BME280;34928;37.302;-121.984;2023-11-19T23:28:18;101882.0;;;23.21;32.04
48644;BME280;34928;37.302;-121.984;2023-11-19T23:38:22;101892.0;;;23.24;32.07
48644;BME280;34928;37.302;-121.984;2023-11-19T23:48:27;101886.0;;;23.27;32.00
48644;BME280;34928;37.302;-121.984;2023-11-19T23:58:33;101892.0;;;23.33;31.90
